createdAt,value
2022-08-12T00:00:18.511Z,99923.59
2022-08-12T00:03:03.703Z,99922.38
2022-08-12T00:06:04.140Z,99918.16
2022-08-12T00:08:54.801Z,99923.84
2022-08-12T00:11:41.141Z,99927.63
2022-08-12T00:14:28.477Z,99924.09
2022-08-12T00:17:13.782Z,99917.34
2022-08-12T00:19:58.941Z,99919.03
2022-08-12T00:22:44.225Z,99925.34
2022-08-12T00:26:00.501Z,99934.97
2022-08-12T00:28:36.168Z,99942.16
2022-08-12T00:31:21.687Z,99935.81
2022-08-12T00:34:07.006Z,99939.19
2022-08-12T00:36:52.349Z,99938.97
2022-08-12T00:39:38.792Z,99934.56
2022-08-12T00:42:11.539Z,99931.66
2022-08-12T00:44:45.571Z,99932.47
2022-08-12T00:47:24.511Z,99930.78
2022-08-12T00:49:54.586Z,99927.44
2022-08-12T00:52:23.570Z,99927.44
2022-08-12T00:54:51.557Z,99931.63
2022-08-12T00:57:21.148Z,99938.16
2022-08-12T00:59:51.266Z,99934.13
2022-08-12T01:02:26.755Z,99938.56
2022-08-12T01:05:16.455Z,99935.41
2022-08-12T01:08:03.331Z,99942.53
2022-08-12T01:10:49.936Z,99948.00
2022-08-12T01:13:20.236Z,99942.94
2022-08-12T01:15:53.619Z,99937.91
2022-08-12T01:18:23.476Z,99940.00
2022-08-12T01:21:13.241Z,99936.63
2022-08-12T01:23:56.925Z,99933.69
2022-08-12T01:26:25.466Z,99939.16
2022-08-12T01:28:58.651Z,99940.41
2022-08-12T01:31:27.019Z,99944.56
2022-08-12T01:34:28.528Z,99940.19
2022-08-12T01:37:02.285Z,99939.53
2022-08-12T01:40:34.439Z,99933.25
2022-08-12T01:42:43.474Z,99922.31
2022-08-12T01:45:12.540Z,99922.31
2022-08-12T01:48:00.722Z,99923.75
2022-08-12T01:50:36.913Z,99924.59
2022-08-12T01:53:10.638Z,99913.03
2022-08-12T01:55:41.523Z,99913.84
2022-08-12T01:58:18.147Z,99916.31
2022-08-12T02:00:56.185Z,99906.22
2022-08-12T02:03:56.793Z,99908.72
2022-08-12T02:06:55.077Z,99905.38
2022-08-12T02:10:02.093Z,99903.69
2022-08-12T02:13:03.130Z,99893.22
2022-08-12T02:15:46.758Z,99889.84
2022-08-12T02:18:29.608Z,99887.75
2022-08-12T02:21:13.543Z,99893.22
2022-08-12T02:23:44.079Z,99886.06
2022-08-12T02:26:15.983Z,99888.59
2022-08-12T02:28:43.316Z,99883.59
2022-08-12T02:31:11.639Z,99889.66
2022-08-12T02:33:39.790Z,99885.25
2022-08-12T02:36:06.757Z,99880.66
2022-08-12T02:38:34.420Z,99883.41
2022-08-12T02:41:03.921Z,99878.16
2022-08-12T02:43:51.417Z,99875.19
2022-08-12T02:46:39.815Z,99875.56
2022-08-12T02:49:13.982Z,99879.94
2022-08-12T02:51:44.443Z,99873.81
2022-08-12T02:54:11.948Z,99875.91
2022-08-12T02:56:41.058Z,99879.44
2022-08-12T02:59:14.204Z,99875.44
2022-08-12T03:01:49.782Z,99875.84
2022-08-12T03:04:58.524Z,99866.63
2022-08-12T03:07:31.958Z,99873.28
2022-08-12T03:10:13.072Z,99877.84
2022-08-12T03:12:50.802Z,99881.63
2022-08-12T03:15:24.011Z,99878.25
2022-08-12T03:18:26.275Z,99885.38
2022-08-12T03:20:43.060Z,99885.94
2022-08-12T03:23:19.426Z,99876.47
2022-08-12T03:25:59.395Z,99881.72
2022-08-12T03:28:46.911Z,99877.75
2022-08-12T03:31:13.560Z,99879.78
2022-08-12T03:34:00.699Z,99878.34
2022-08-12T03:36:29.044Z,99877.69
2022-08-12T03:39:15.829Z,99879.38
2022-08-12T03:42:10.553Z,99872.22
2022-08-12T03:45:23.814Z,99872.44
2022-08-12T03:48:38.398Z,99872.22
2022-08-12T03:51:24.329Z,99874.94
2022-08-12T03:54:11.497Z,99872.63
2022-08-12T03:56:57.966Z,99873.09
2022-08-12T03:59:43.130Z,99875.63
2022-08-12T04:02:14.825Z,99874.81
2022-08-12T04:04:45.406Z,99879.88
2022-08-12T04:07:13.835Z,99884.03
2022-08-12T04:09:43.154Z,99884.28
2022-08-12T04:12:29.882Z,99887.06
2022-08-12T04:15:01.006Z,99876.63
2022-08-12T04:17:28.712Z,99889.31
2022-08-12T04:19:56.832Z,99887.69
2022-08-12T04:22:28.998Z,99892.13
2022-08-12T04:24:59.006Z,99891.50
2022-08-12T04:27:25.690Z,99884.84
2022-08-12T04:30:31.657Z,99885.31
2022-08-12T04:32:43.827Z,99891.84
2022-08-12T04:35:11.197Z,99890.63
2022-08-12T04:37:59.313Z,99894.22
2022-08-12T04:40:29.804Z,99895.28
2022-08-12T04:42:57.780Z,99890.94
2022-08-12T04:45:25.135Z,99894.91
2022-08-12T04:47:52.226Z,99894.28
2022-08-12T04:50:35.116Z,99898.88
2022-08-12T04:53:08.254Z,99894.03
2022-08-12T04:55:37.772Z,99887.09
2022-08-12T04:58:04.762Z,99891.06
2022-08-12T05:00:31.774Z,99879.91
2022-08-12T05:02:58.698Z,99893.78
2022-08-12T05:05:25.467Z,99904.28
2022-08-12T05:07:54.094Z,99910.59
2022-08-12T05:10:33.429Z,99904.31
2022-08-12T05:13:05.709Z,99902.66
2022-08-12T05:15:32.361Z,99896.78
2022-08-12T05:18:00.167Z,99908.06
2022-08-12T05:20:29.572Z,99902.16
2022-08-12T05:23:13.351Z,99906.78
2022-08-12T05:25:45.895Z,99899.84
2022-08-12T05:28:13.926Z,99891.66
2022-08-12T05:30:43.233Z,99918.16
2022-08-12T05:33:11.395Z,99902.38
2022-08-12T05:35:40.315Z,99903.81
2022-08-12T05:38:28.196Z,99908.75
2022-08-12T05:40:55.261Z,99909.13
2022-08-12T05:43:22.447Z,99908.97
2022-08-12T05:45:49.688Z,99921.50
2022-08-12T05:48:17.409Z,99924.63
2022-08-12T05:50:45.571Z,99915.44
2022-08-12T05:53:13.291Z,99922.19
2022-08-12T05:55:40.674Z,99913.84
2022-08-12T05:58:10.305Z,99914.09
2022-08-12T06:00:37.588Z,99918.72
2022-08-12T06:03:06.157Z,99929.38
2022-08-12T06:05:54.206Z,99930.34
2022-08-12T06:08:23.115Z,99936.94
2022-08-12T06:10:50.513Z,99933.56
2022-08-12T06:13:28.057Z,99930.75
2022-08-12T06:16:07.449Z,99932.56
2022-08-12T06:18:34.748Z,99925.78
2022-08-12T06:21:02.183Z,99928.66
2022-08-12T06:23:29.719Z,99935.59
2022-08-12T06:25:56.868Z,99933.50
2022-08-12T06:28:23.945Z,99936.41
2022-08-12T06:31:08.549Z,99937.59
2022-08-12T06:34:00.710Z,99942.06
2022-08-12T06:36:30.057Z,99944.38
2022-08-12T06:39:00.879Z,99941.78
2022-08-12T06:42:04.922Z,99944.66
2022-08-12T06:44:32.990Z,99937.47
2022-08-12T06:47:00.133Z,99934.56
2022-08-12T06:49:28.402Z,99934.06
2022-08-12T06:51:56.741Z,99936.41
2022-08-12T06:54:30.717Z,99929.94
2022-08-12T06:57:04.324Z,99934.25
2022-08-12T06:59:32.419Z,99934.69
2022-08-12T07:01:59.272Z,99934.78
2022-08-12T07:04:41.541Z,99940.66
2022-08-12T07:07:10.635Z,99937.97
2022-08-12T07:10:03.957Z,99941.22
2022-08-12T07:12:29.787Z,99938.53
2022-08-12T07:15:02.076Z,99939.00
2022-08-12T07:17:36.201Z,99936.97
2022-08-12T07:20:05.616Z,99932.91
2022-08-12T07:22:33.442Z,99934.47
2022-08-12T07:25:18.617Z,99941.94
2022-08-12T07:27:45.790Z,99935.22
2022-08-12T07:30:13.361Z,99931.00
2022-08-12T07:32:40.177Z,99936.16
2022-08-12T07:35:07.395Z,99930.13
2022-08-12T07:37:42.054Z,99942.53
2022-08-12T07:40:12.174Z,99946.78
2022-08-12T07:42:43.874Z,99940.19
2022-08-12T07:45:12.426Z,99935.03
2022-08-12T07:47:43.527Z,99937.53
2022-08-12T07:50:13.101Z,99937.88
2022-08-12T07:52:43.142Z,99926.63
2022-08-12T07:55:11.479Z,99928.44
2022-08-12T07:57:55.940Z,99936.25
2022-08-12T08:00:23.274Z,99922.94
2022-08-12T08:02:54.331Z,99927.34
2022-08-12T08:05:23.807Z,99923.25
2022-08-12T08:07:53.766Z,99928.59
2022-08-12T08:10:21.008Z,99923.81
2022-08-12T08:12:53.950Z,99922.78
2022-08-12T08:16:00.794Z,99919.56
2022-08-12T08:18:26.503Z,99918.44
2022-08-12T08:20:56.655Z,99915.91
2022-08-12T08:23:43.652Z,99930.34
2022-08-12T08:26:15.698Z,99924.78
2022-08-12T08:28:43.643Z,99921.88
2022-08-12T08:31:10.488Z,99933.47
2022-08-12T08:34:05.227Z,99929.66
2022-08-12T08:36:24.389Z,99933.91
2022-08-12T08:38:53.264Z,99931.41
2022-08-12T08:42:14.276Z,99929.16
2022-08-12T08:44:30.600Z,99934.38
2022-08-12T08:46:57.428Z,99928.94
2022-08-12T08:49:24.876Z,99933.19
2022-08-12T08:51:51.635Z,99934.97
2022-08-12T08:54:18.366Z,99934.44
2022-08-12T08:56:50.316Z,99926.69
2022-08-12T08:59:19.390Z,99926.22
2022-08-12T09:01:47.143Z,99927.16
2022-08-12T09:05:07.307Z,99921.16
2022-08-12T09:07:17.878Z,99920.50
2022-08-12T09:10:03.349Z,99920.50
2022-08-12T09:12:54.004Z,99927.31
2022-08-12T09:15:21.834Z,99925.88
2022-08-12T09:17:57.026Z,99925.34
2022-08-12T09:20:36.253Z,99918.53
2022-08-12T09:25:58.383Z,99922.25
2022-08-12T09:28:32.995Z,99922.41
2022-08-12T09:31:00.386Z,99917.03
2022-08-12T09:34:28.856Z,99922.75
2022-08-12T09:36:31.419Z,99918.03
2022-08-12T09:40:02.062Z,99907.28
2022-08-12T09:42:33.551Z,99909.25
2022-08-12T09:46:11.147Z,99905.75
2022-08-12T09:48:22.250Z,99913.53
2022-08-12T09:50:52.162Z,99906.13
2022-08-12T09:53:35.947Z,99899.53
2022-08-12T09:56:41.153Z,99897.91
2022-08-12T09:59:00.401Z,99889.63
2022-08-12T10:01:34.910Z,99886.00
2022-08-12T10:04:19.031Z,99886.06
2022-08-12T10:06:55.078Z,99889.53
2022-08-12T10:09:28.605Z,99875.56
2022-08-12T10:12:31.109Z,99871.84
2022-08-12T10:15:00.014Z,99871.59
2022-08-12T10:17:26.720Z,99877.97
2022-08-12T10:19:53.399Z,99873.06
2022-08-12T10:22:38.803Z,99866.13
2022-08-12T10:26:18.438Z,99867.69
2022-08-12T10:28:38.319Z,99857.75
2022-08-12T10:31:06.055Z,99858.81
2022-08-12T10:33:55.174Z,99859.19
2022-08-12T10:36:21.556Z,99852.84
2022-08-12T10:39:03.721Z,99853.22
2022-08-12T10:42:09.480Z,99847.44
2022-08-12T10:44:37.134Z,99844.31
2022-08-12T10:47:26.628Z,99842.09
2022-08-12T10:50:02.659Z,99850.84
2022-08-12T10:52:39.008Z,99847.69
2022-08-12T10:55:12.948Z,99835.06
2022-08-12T10:58:15.351Z,99836.59
2022-08-12T11:00:33.953Z,99840.66
2022-08-12T11:04:34.344Z,99834.75
2022-08-12T11:07:09.834Z,99835.94
2022-08-12T11:08:43.071Z,99835.88
2022-08-12T11:12:08.432Z,99835.56
2022-08-12T11:14:05.713Z,99825.94
2022-08-12T11:16:33.419Z,99837.84
2022-08-12T11:19:03.004Z,99827.44
2022-08-12T11:21:57.698Z,99830.97
2022-08-12T11:24:31.945Z,99821.50
2022-08-12T11:27:07.841Z,99811.97
2022-08-12T11:30:06.097Z,99819.88
2022-08-12T11:32:24.622Z,99810.91
2022-08-12T11:34:54.562Z,99809.66
2022-08-12T11:37:25.682Z,99797.25
2022-08-12T11:42:45.891Z,99793.56
2022-08-12T11:45:16.574Z,99793.94
2022-08-12T11:47:43.888Z,99796.34
2022-08-12T11:50:11.588Z,99803.13
2022-08-12T11:52:55.479Z,99786.28
2022-08-12T11:55:24.429Z,99787.00
2022-08-12T11:58:44.157Z,99788.19
2022-08-12T12:03:44.103Z,99777.28
2022-08-12T12:06:17.083Z,99776.06
2022-08-12T12:08:50.043Z,99766.22
2022-08-12T12:11:18.619Z,99767.38
2022-08-12T12:14:07.783Z,99776.06
2022-08-12T12:16:33.294Z,99771.34
2022-08-12T12:19:00.861Z,99777.56
2022-08-12T12:21:46.771Z,99784.44
2022-08-12T12:24:20.821Z,99774.28
2022-08-12T12:26:59.755Z,99766.19
2022-08-12T12:30:19.314Z,99764.78
2022-08-12T12:32:15.114Z,99768.50
2022-08-12T12:35:17.878Z,99751.53
2022-08-12T12:38:04.077Z,99753.63
2022-08-12T12:40:15.963Z,99737.66
2022-08-12T12:43:00.349Z,99744.81
2022-08-12T12:45:33.386Z,99742.56
2022-08-12T12:51:56.400Z,99735.81
2022-08-12T12:54:29.078Z,99721.78
2022-08-12T12:56:56.187Z,99726.75
2022-08-12T12:59:33.748Z,99720.75
2022-08-12T13:02:10.997Z,99719.16
2022-08-12T13:04:38.057Z,99723.47
2022-08-12T13:07:06.593Z,99718.22
2022-08-12T13:09:36.302Z,99722.91
2022-08-12T13:12:05.167Z,99713.63
2022-08-12T13:14:35.174Z,99708.78
2022-08-12T13:17:06.283Z,99700.59
2022-08-12T13:19:44.518Z,99707.94
2022-08-12T13:22:20.424Z,99709.06
2022-08-12T13:24:55.479Z,99707.50
2022-08-12T13:27:34.922Z,99702.50
2022-08-12T13:30:10.957Z,99706.56
2022-08-12T13:32:57.515Z,99703.00
2022-08-12T13:36:02.663Z,99706.56
2022-08-12T13:38:13.500Z,99712.25
2022-08-12T13:40:40.601Z,99701.88
2022-08-12T13:43:07.546Z,99707.13
2022-08-12T13:45:36.837Z,99697.81
2022-08-12T13:48:05.510Z,99703.28
2022-08-12T13:50:38.054Z,99703.53
2022-08-12T13:53:24.388Z,99699.72
2022-08-12T13:56:01.319Z,99686.81
2022-08-12T13:58:30.795Z,99692.84
2022-08-12T14:01:05.873Z,99692.47
2022-08-12T14:03:50.246Z,99689.38
2022-08-12T14:06:19.264Z,99682.47
2022-08-12T14:08:49.768Z,99677.56
2022-08-12T14:11:18.376Z,99678.13
2022-08-12T14:14:05.541Z,99678.50
2022-08-12T14:16:48.158Z,99669.16
2022-08-12T14:19:24.384Z,99664.19
2022-08-12T14:21:58.892Z,99676.84
2022-08-12T14:24:30.630Z,99671.25
2022-08-12T14:26:58.863Z,99665.84
2022-08-12T14:29:56.293Z,99670.31
2022-08-12T14:32:17.911Z,99668.25
2022-08-12T14:34:47.245Z,99666.13
2022-08-12T14:37:55.599Z,99666.38
2022-08-12T14:40:28.061Z,99653.63
2022-08-12T14:42:55.713Z,99656.22
2022-08-12T14:45:44.471Z,99656.69
2022-08-12T14:48:12.811Z,99660.56
2022-08-12T14:51:02.626Z,99652.22
2022-08-12T14:59:23.998Z,99654.91
2022-08-12T15:01:52.005Z,99648.00
2022-08-12T15:04:22.557Z,99642.41
2022-08-12T15:06:52.630Z,99643.84
2022-08-12T15:09:28.726Z,99653.44
2022-08-12T15:12:03.199Z,99648.69
2022-08-12T15:14:30.626Z,99640.41
2022-08-12T15:17:00.049Z,99645.97
2022-08-12T15:20:10.806Z,99642.72
2022-08-12T15:22:38.133Z,99646.66
2022-08-12T15:25:07.151Z,99646.31
2022-08-12T15:28:04.437Z,99645.16
2022-08-12T15:30:26.925Z,99651.22
2022-08-12T15:32:57.462Z,99639.13
2022-08-12T15:35:27.470Z,99645.09
2022-08-12T15:38:13.795Z,99644.88
2022-08-12T15:40:53.688Z,99641.97
2022-08-12T15:43:51.043Z,99629.28
2022-08-12T15:46:14.834Z,99631.94
2022-08-12T15:48:46.475Z,99625.44
2022-08-12T15:51:58.630Z,99620.53
2022-08-12T15:54:33.641Z,99615.59
2022-08-12T15:57:07.691Z,99608.13
2022-08-12T16:00:03.951Z,99609.69
2022-08-12T16:02:23.008Z,99617.44
2022-08-12T16:04:54.258Z,99609.25
2022-08-12T16:07:25.903Z,99610.66
2022-08-12T16:10:07.008Z,99602.41
2022-08-12T16:12:54.403Z,99606.81
2022-08-12T16:15:24.823Z,99611.19
2022-08-12T16:18:18.333Z,99602.22
2022-08-12T16:20:46.740Z,99608.97
2022-08-12T16:23:35.975Z,99614.47
2022-08-12T16:26:06.047Z,99618.00
2022-08-12T16:28:42.554Z,99618.84
2022-08-12T16:31:14.388Z,99608.28
2022-08-12T16:33:59.285Z,99607.38
2022-08-12T16:36:28.632Z,99606.34
2022-08-12T16:38:55.323Z,99609.16
2022-08-12T16:41:22.900Z,99606.63
2022-08-12T16:43:50.548Z,99601.16
2022-08-12T16:46:31.911Z,99592.94
2022-08-12T16:49:09.111Z,99590.50
2022-08-12T16:51:45.653Z,99599.16
2022-08-12T16:54:16.519Z,99598.88
2022-08-12T16:56:54.961Z,99599.13
2022-08-12T16:59:24.058Z,99608.56
2022-08-12T17:01:51.629Z,99597.75
2022-08-12T17:04:18.976Z,99603.56
2022-08-12T17:06:48.009Z,99604.72
2022-08-12T17:09:17.603Z,99605.84
2022-08-12T17:11:49.245Z,99601.97
2022-08-12T17:14:16.916Z,99607.50
2022-08-12T17:16:45.657Z,99605.31
2022-08-12T17:19:14.461Z,99605.31
2022-08-12T17:22:01.481Z,99612.75
2022-08-12T17:24:32.568Z,99612.19
2022-08-12T17:27:16.003Z,99614.09
2022-08-12T17:30:02.650Z,99614.66
2022-08-12T17:32:33.750Z,99607.47
2022-08-12T17:35:19.722Z,99608.56
2022-08-12T17:37:48.723Z,99610.22
2022-08-12T17:40:34.307Z,99611.84
2022-08-12T17:43:54.631Z,99616.78
2022-08-12T17:45:56.212Z,99619.50
2022-08-12T17:48:34.914Z,99612.91
2022-08-12T17:51:15.983Z,99624.19
2022-08-12T17:54:05.942Z,99624.44
2022-08-12T17:56:32.209Z,99623.31
2022-08-12T17:59:00.822Z,99631.59
2022-08-12T18:01:29.361Z,99626.03
2022-08-12T18:04:21.726Z,99626.56
2022-08-12T18:06:51.243Z,99629.28
2022-08-12T18:09:20.441Z,99633.69
2022-08-12T18:12:24.865Z,99633.09
2022-08-12T18:15:00.999Z,99638.88
2022-08-12T18:17:34.717Z,99646.25
2022-08-12T18:20:08.209Z,99639.91
2022-08-12T18:22:42.848Z,99646.78
2022-08-12T18:26:14.057Z,99648.41
2022-08-12T18:28:28.171Z,99650.56
2022-08-12T18:31:03.150Z,99652.19
2022-08-12T18:33:44.040Z,99649.97
2022-08-12T18:36:14.702Z,99658.50
2022-08-12T18:38:53.151Z,99652.13
2022-08-12T18:41:34.562Z,99648.78
2022-08-12T18:44:09.624Z,99659.28
2022-08-12T18:46:54.406Z,99658.13
2022-08-12T18:49:39.251Z,99666.38
2022-08-12T18:52:08.056Z,99658.88
2022-08-12T18:54:41.546Z,99656.38
2022-08-12T18:57:19.799Z,99660.22
2022-08-12T19:00:07.744Z,99656.91
2022-08-12T19:02:40.127Z,99655.75
2022-08-12T19:05:11.567Z,99665.16
2022-08-12T19:08:00.635Z,99657.13
2022-08-12T19:10:30.731Z,99663.97
2022-08-12T19:13:23.359Z,99658.97
2022-08-12T19:15:58.045Z,99664.50
2022-08-12T19:18:30.104Z,99656.75
2022-08-12T19:21:06.116Z,99642.94
2022-08-12T19:23:35.492Z,99645.16
2022-08-12T19:26:03.649Z,99641.81
2022-08-12T19:28:36.438Z,99647.84
2022-08-12T19:31:45.201Z,99642.88
2022-08-12T19:37:38.535Z,99635.69
2022-08-12T19:40:31.879Z,99640.66
2022-08-12T19:43:17.294Z,99631.84
2022-08-12T19:45:53.569Z,99633.50
2022-08-12T19:48:23.045Z,99639.53
2022-08-12T19:50:53.546Z,99631.22
2022-08-12T19:53:24.444Z,99633.94
2022-08-12T19:55:54.841Z,99625.09
2022-08-12T19:58:23.326Z,99636.63
2022-08-12T20:00:54.324Z,99622.28
2022-08-12T20:03:38.326Z,99626.97
2022-08-12T20:06:13.727Z,99627.78
2022-08-12T20:08:48.694Z,99630.50
2022-08-12T20:12:11.891Z,99634.34
2022-08-12T20:14:05.103Z,99636.53
2022-08-12T20:16:57.625Z,99633.19
2022-08-12T20:19:52.678Z,99635.38
2022-08-12T20:22:24.955Z,99634.22
2022-08-12T20:25:09.126Z,99635.84
2022-08-12T20:28:05.315Z,99627.59
2022-08-12T20:30:52.667Z,99622.59
2022-08-12T20:33:18.380Z,99612.09
2022-08-12T20:36:06.628Z,99613.44
2022-08-12T20:38:39.798Z,99603.41
2022-08-12T20:41:16.273Z,99601.53
2022-08-12T20:43:45.090Z,99606.44
2022-08-12T20:46:13.469Z,99597.88
2022-08-12T20:48:43.431Z,99602.81
2022-08-12T20:51:15.897Z,99600.31
2022-08-12T20:53:58.596Z,99600.81
2022-08-12T20:56:35.456Z,99596.97
2022-08-12T20:59:06.617Z,99599.16
2022-08-12T21:01:46.125Z,99603.00
2022-08-12T21:04:33.804Z,99603.50
2022-08-12T21:07:09.551Z,99601.84
2022-08-12T21:09:47.618Z,99601.84
2022-08-12T21:12:28.221Z,99599.03
2022-08-12T21:15:23.919Z,99594.03
2022-08-12T21:18:09.167Z,99596.22
2022-08-12T21:20:44.512Z,99599.47
2022-08-12T21:23:11.282Z,99595.06
2022-08-12T21:25:45.203Z,99584.56
2022-08-12T21:28:14.336Z,99594.75
2022-08-12T21:31:11.527Z,99608.75
2022-08-12T21:33:45.569Z,99592.25
2022-08-12T21:36:22.774Z,99607.09
2022-08-12T21:39:20.365Z,99597.44
2022-08-12T21:41:53.191Z,99586.44
2022-08-12T21:45:43.798Z,99588.59
2022-08-12T21:47:19.782Z,99589.94
2022-08-12T21:49:55.657Z,99586.59
2022-08-12T21:52:48.790Z,99590.72
2022-08-12T21:55:18.912Z,99587.66
2022-08-12T21:57:53.149Z,99585.97
2022-08-12T22:00:31.547Z,99595.91
2022-08-12T22:03:17.666Z,99592.06
2022-08-12T22:06:20.392Z,99584.31
2022-08-12T22:09:01.948Z,99581.00
2022-08-12T22:11:42.368Z,99579.31
2022-08-12T22:14:21.726Z,99569.41
2022-08-12T22:16:52.413Z,99560.81
2022-08-12T22:19:19.734Z,99561.06
2022-08-12T22:21:53.516Z,99571.47
2022-08-12T22:24:26.997Z,99564.31
2022-08-12T22:27:28.194Z,99569.81
2022-08-12T22:30:16.481Z,99562.66
2022-08-12T22:32:54.781Z,99566.47
2022-08-12T22:35:29.767Z,99556.00
2022-08-12T22:38:19.799Z,99555.41
2022-08-12T22:40:51.906Z,99557.81
2022-08-12T22:44:01.128Z,99558.34
2022-08-12T22:46:26.704Z,99548.69
2022-08-12T22:48:57.512Z,99543.69
2022-08-12T22:51:24.493Z,99553.03
2022-08-12T22:53:54.307Z,99556.28
2022-08-12T22:56:30.853Z,99553.53
2022-08-12T22:59:02.863Z,99552.47
2022-08-12T23:02:01.088Z,99545.84
2022-08-12T23:04:27.827Z,99540.84
2022-08-12T23:06:56.871Z,99545.78
2022-08-12T23:09:34.633Z,99538.03
2022-08-12T23:12:34.510Z,99539.66
2022-08-12T23:15:05.627Z,99541.75
2022-08-12T23:17:40.234Z,99538.25
2022-08-12T23:20:10.927Z,99545.06
2022-08-12T23:22:38.330Z,99538.25
2022-08-12T23:25:05.388Z,99546.22
2022-08-12T23:27:56.212Z,99548.72
2022-08-12T23:30:32.157Z,99544.03
2022-08-12T23:33:20.080Z,99537.66
2022-08-12T23:35:58.858Z,99545.91
2022-08-12T23:38:32.222Z,99541.25
2022-08-12T23:41:01.483Z,99536.25
2022-08-12T23:43:38.463Z,99547.72
2022-08-12T23:46:08.661Z,99538.91
2022-08-12T23:48:35.800Z,99531.25
2022-08-12T23:51:23.276Z,99530.75
2022-08-12T23:53:56.465Z,99527.44
2022-08-12T23:56:29.204Z,99528.41
2022-08-12T23:58:58.613Z,99533.44
